TimeEST,TemperatureF,Dew PointF,Humidity,Sea Level PressureIn,VisibilityMPH,Wind Direction,Wind SpeedMPH,Gust SpeedMPH,PrecipitationIn,Events,Conditions,WindDirDegrees,DateUTC
12:15 AM,45.5,37.2,73,30.08,5.0,East,3.5,-,N/A,,Haze,80,2012-11-10 05:15:00
12:34 AM,45.5,37.2,73,30.08,7.0,East,3.5,-,N/A,,Overcast,80,2012-11-10 05:34:00
12:54 AM,45.5,37.0,72,30.08,5.0,East,3.5,-,N/A,,Haze,90,2012-11-10 05:54:00
1:15 AM,45.1,37.0,73,30.08,5.0,ESE,3.5,-,N/A,,Haze,110,2012-11-10 06:15:00
1:34 AM,44.8,37.4,75,30.08,5.0,Calm,Calm,-,N/A,,Haze,0,2012-11-10 06:34:00
1:54 AM,44.6,37.0,75,30.08,5.0,East,3.5,-,N/A,,Haze,80,2012-11-10 06:54:00
2:15 AM,44.6,37.2,75,30.08,5.0,East,3.5,-,N/A,,Haze,80,2012-11-10 07:15:00
2:34 AM,44.6,37.0,75,30.08,5.0,Calm,Calm,-,N/A,,Haze,0,2012-11-10 07:34:00
3:15 AM,44.6,36.9,74,30.08,5.0,ESE,3.5,-,N/A,,Haze,120,2012-11-10 08:15:00
3:34 AM,44.6,36.9,74,30.08,5.0,Calm,Calm,-,N/A,,Haze,0,2012-11-10 08:34:00
3:54 AM,44.6,36.9,74,30.08,5.0,East,3.5,-,N/A,,Haze,90,2012-11-10 08:54:00
4:15 AM,44.8,37.0,74,30.07,5.0,ESE,4.6,-,N/A,,Haze,110,2012-11-10 09:15:00
4:34 AM,44.8,36.9,74,30.07,5.0,East,3.5,-,N/A,,Haze,90,2012-11-10 09:34:00
4:54 AM,44.8,36.9,74,30.08,5.0,ESE,4.6,-,N/A,,Haze,110,2012-11-10 09:54:00
5:14 AM,44.8,36.9,74,30.07,5.0,ESE,4.6,-,N/A,,Haze,110,2012-11-10 10:14:00
5:34 AM,44.8,37.4,75,30.07,5.0,ESE,4.6,-,N/A,Rain,Light Rain,120,2012-11-10 10:34:00
5:54 AM,44.1,38.3,80,30.06,4.0,ESE,6.9,-,N/A,Rain,Light Rain,120,2012-11-10 10:54:00
6:14 AM,43.9,38.7,82,30.06,4.0,Calm,Calm,-,N/A,,Haze,0,2012-11-10 11:14:00
6:35 AM,43.9,38.7,82,30.06,4.0,ESE,4.6,-,N/A,,Haze,120,2012-11-10 11:35:00
6:54 AM,43.9,38.8,82,30.06,4.0,East,3.5,-,N/A,,Haze,100,2012-11-10 11:54:00
7:35 AM,43.9,38.8,82,30.06,2.5,East,4.6,-,N/A,,Haze,80,2012-11-10 12:35:00
7:54 AM,44.1,39.0,82,30.06,2.5,ESE,5.8,-,N/A,,Haze,110,2012-11-10 12:54:00
8:14 AM,44.1,39.2,83,30.06,2.5,ESE,6.9,-,N/A,,Haze,120,2012-11-10 13:14:00
8:35 AM,44.6,39.2,81,30.06,2.5,ESE,6.9,-,N/A,,Haze,110,2012-11-10 13:35:00
8:54 AM,44.8,39.4,81,30.08,2.5,SE,4.6,-,N/A,,Haze,130,2012-11-10 13:54:00
9:14 AM,45.1,39.6,81,30.08,2.5,Calm,Calm,-,N/A,,Haze,0,2012-11-10 14:14:00
9:35 AM,45.1,39.6,81,30.06,2.5,ESE,8.1,-,N/A,,Haze,120,2012-11-10 14:35:00
9:54 AM,45.7,39.9,80,30.05,2.5,ESE,6.9,-,N/A,,Haze,110,2012-11-10 14:54:00
10:14 AM,46.4,40.1,79,30.06,2.5,SE,4.6,-,N/A,,Haze,130,2012-11-10 15:14:00
10:35 AM,46.6,40.3,79,30.05,3.0,East,5.8,-,N/A,,Haze,100,2012-11-10 15:35:00
10:54 AM,47.3,40.5,77,30.05,3.0,ESE,4.6,-,N/A,,Haze,120,2012-11-10 15:54:00
11:14 AM,47.7,40.6,77,30.05,3.0,ESE,9.2,-,N/A,,Haze,120,2012-11-10 16:14:00
11:35 AM,48.2,40.8,76,30.03,4.0,SE,4.6,-,N/A,,Haze,130,2012-11-10 16:35:00
11:54 AM,48.6,41.0,75,30.03,4.0,ESE,10.4,-,N/A,,Haze,120,2012-11-10 16:54:00
12:15 PM,48.9,41.0,74,30.03,4.0,SE,6.9,-,N/A,,Haze,140,2012-11-10 17:15:00
12:35 PM,49.5,41.0,73,30.00,4.0,East,9.2,-,N/A,,Haze,100,2012-11-10 17:35:00
12:54 PM,50.0,41.2,72,29.99,4.0,ESE,11.5,-,N/A,,Haze,110,2012-11-10 17:54:00
1:15 PM,50.7,41.7,71,29.98,4.0,SSE,6.9,-,N/A,,Haze,150,2012-11-10 18:15:00
1:35 PM,52.5,42.1,68,29.98,5.0,SE,9.2,-,N/A,,Haze,140,2012-11-10 18:35:00
1:54 PM,52.7,42.1,67,29.97,5.0,SE,10.4,-,N/A,,Haze,130,2012-11-10 18:54:00
2:15 PM,53.4,42.3,66,29.96,5.0,SE,10.4,-,N/A,,Haze,140,2012-11-10 19:15:00
2:34 PM,53.6,42.8,67,29.96,5.0,SSE,9.2,-,N/A,,Haze,160,2012-11-10 19:34:00
2:55 PM,54.3,43.0,66,29.96,5.0,SSE,8.1,-,N/A,,Haze,160,2012-11-10 19:55:00
3:14 PM,54.5,43.2,66,29.95,5.0,SE,9.2,-,N/A,,Haze,140,2012-11-10 20:14:00
3:34 PM,54.5,43.2,66,29.94,5.0,SE,8.1,-,N/A,,Haze,140,2012-11-10 20:34:00
3:55 PM,54.5,43.5,66,29.94,5.0,SE,8.1,-,N/A,,Haze,140,2012-11-10 20:55:00
4:14 PM,54.9,43.7,66,29.93,5.0,SSE,9.2,-,N/A,,Haze,150,2012-11-10 21:14:00
4:34 PM,55.4,43.9,65,29.93,7.0,SE,8.1,-,N/A,,Clear,140,2012-11-10 21:34:00
4:55 PM,55.4,44.1,66,29.93,7.0,SE,8.1,-,N/A,,Clear,140,2012-11-10 21:55:00
5:14 PM,54.9,44.1,67,29.92,7.0,SE,5.8,-,N/A,,Clear,130,2012-11-10 22:14:00
5:34 PM,54.0,43.9,69,29.91,7.0,SSE,6.9,-,N/A,,Clear,160,2012-11-10 22:34:00
5:55 PM,53.6,43.9,70,29.91,7.0,South,6.9,-,N/A,,Clear,180,2012-11-10 22:55:00
6:14 PM,53.6,44.1,70,29.91,7.0,ESE,4.6,-,N/A,,Clear,110,2012-11-10 23:14:00
6:35 PM,53.6,44.1,70,29.92,7.0,South,6.9,-,N/A,,Clear,180,2012-11-10 23:35:00
6:55 PM,52.7,44.2,73,29.93,7.0,South,5.8,-,N/A,,Clear,190,2012-11-10 23:55:00
7:14 PM,50.9,43.0,74,29.94,7.0,Calm,Calm,-,N/A,,Clear,0,2012-11-11 00:14:00
7:35 PM,48.0,42.3,80,29.93,7.0,SSE,3.5,-,N/A,,Clear,160,2012-11-11 00:35:00
7:55 PM,46.0,42.3,87,29.94,7.0,Calm,Calm,-,N/A,,Clear,0,2012-11-11 00:55:00
8:14 PM,45.9,43.3,91,29.94,5.0,Calm,Calm,-,N/A,,Clear,0,2012-11-11 01:14:00
8:35 PM,43.7,41.5,92,29.93,4.0,Calm,Calm,-,N/A,,Clear,0,2012-11-11 01:35:00
8:55 PM,43.7,41.9,93,29.91,4.0,Calm,Calm,-,N/A,,Clear,0,2012-11-11 01:55:00
9:14 PM,42.8,41.2,94,29.91,4.0,Calm,Calm,-,N/A,,Clear,0,2012-11-11 02:14:00
9:35 PM,43.5,41.9,94,29.91,2.5,Calm,Calm,-,N/A,,Clear,0,2012-11-11 02:35:00
9:55 PM,44.1,42.4,94,29.91,3.0,Calm,Calm,-,N/A,,Clear,0,2012-11-11 02:55:00
10:35 PM,44.6,42.4,92,29.91,4.0,Calm,Calm,-,N/A,,Clear,0,2012-11-11 03:35:00
10:54 PM,45.7,43.7,93,29.91,5.0,ENE,3.5,-,N/A,,Clear,60,2012-11-11 03:54:00
11:14 PM,45.7,43.5,92,29.91,5.0,Calm,Calm,-,N/A,,Clear,0,2012-11-11 04:14:00
11:35 PM,46.8,44.8,93,29.91,7.0,SSE,4.6,-,N/A,,Clear,160,2012-11-11 04:35:00
11:55 PM,58.6,45.5,62,29.91,10.0,SSW,9.2,-,N/A,,Clear,200,2012-11-11 04:55:00